Terminal Aerodrome Forecast
Issued by NWS

Home | Current Version | Previous Version | Text Only | Print | Product List | Glossary Off
Versions: 1 2 3 4 5 6 7 8 9 10 11 12 13 14 15 16 17 18

740
FTUS43 KBIS 061729
TAFJMS
TAF
KJMS 061729Z 0618/0718 24015KT P6SM BKN120
     FM070000 27025G35KT P6SM BKN100
     FM070600 29029G40KT P6SM BKN130
     FM071200 32031G42KT P6SM OVC030
     FM071500 33034G45KT 4SM BLSN OVC020=

USA.gov is the U.S. government's official web portal to all federal, state and local government web resources and services.